Time;durP1;ratioP1;P1;durP2;ratioP2;P2;SDS_P1;SDS_P2;PMS_P1;PMS_P2;Temp;Humidity;BMP_temperature;BMP_pressure;BME280_temperature;BME280_humidity;BME280_pressure;Samples;Min_cycle;Max_cycle;Signal;HPM_P1;HPM_P2
2021/08/06 00:01:10;;;;;;;31.38;8.40;;;;;;;;;;5115139;28;20030;-77
2021/08/06 00:03:36;;;;;;;34.65;9.30;;;;;;;;;;5115377;28;20031;-77
2021/08/06 00:06:02;;;;;;;43.17;8.60;;;;;;;;;;5115219;28;20479;-77
2021/08/06 00:08:27;;;;;;;34.25;8.45;;;;;;;;;;5115090;28;20022;-77
2021/08/06 00:10:52;;;;;;;37.45;8.43;;;;;;;;;;5115255;28;20036;-77
2021/08/06 00:13:18;;;;;;;28.92;8.32;;;;;;;;;;5114737;28;20063;-77
2021/08/06 00:15:43;;;;;;;32.28;7.75;;;;;;;;;;5115034;28;20026;-77
2021/08/06 00:18:08;;;;;;;35.15;8.90;;;;;;;;;;5114993;28;20030;-77
2021/08/06 00:20:35;;;;;;;33.95;7.22;;;;;;;;;;5114880;28;20419;-78
2021/08/06 00:23:02;;;;;;;26.20;6.95;;;;;;;;;;5114813;28;20043;-76
2021/08/06 00:25:27;;;;;;;28.88;6.72;;;;;;;;;;5114893;28;20073;-77
2021/08/06 00:27:53;;;;;;;40.20;7.55;;;;;;;;;;5114532;28;20478;-77
2021/08/06 00:30:18;;;;;;;28.83;6.10;;;;;;;;;;5114691;28;20020;-77
2021/08/06 00:32:43;;;;;;;21.25;6.60;;;;;;;;;;5114465;28;20071;-77
2021/08/06 00:35:09;;;;;;;22.35;7.03;;;;;;;;;;5114669;28;20032;-77
2021/08/06 00:37:34;;;;;;;27.20;7.45;;;;;;;;;;5114456;28;20524;-77
2021/08/06 00:39:59;;;;;;;25.83;6.47;;;;;;;;;;5114010;28;20019;-77
2021/08/06 00:42:24;;;;;;;30.23;5.95;;;;;;;;;;5114472;28;20440;-77
2021/08/06 00:44:50;;;;;;;27.05;6.75;;;;;;;;;;5114487;28;20024;-76
2021/08/06 00:47:16;;;;;;;32.03;6.72;;;;;;;;;;5114482;28;20470;-76
2021/08/06 00:49:41;;;;;;;21.88;6.63;;;;;;;;;;5114394;28;20379;-76
2021/08/06 00:52:07;;;;;;;25.58;6.43;;;;;;;;;;5113936;28;20379;-76
2021/08/06 00:54:32;;;;;;;30.20;7.63;;;;;;;;;;5114320;28;20016;-77
2021/08/06 00:56:57;;;;;;;26.15;7.20;;;;;;;;;;5114239;28;20130;-76
2021/08/06 00:59:23;;;;;;;28.48;6.13;;;;;;;;;;5114223;28;20446;-77
2021/08/06 01:01:53;;;;;;;30.65;8.20;;;;;;;;;;5114423;28;20078;-76
2021/08/06 01:04:28;;;;;;;20.65;6.68;;;;;;;;;;5114208;28;20035;-76
2021/08/06 01:07:06;;;;;;;21.63;6.68;;;;;;;;;;5114206;28;20060;-76
2021/08/06 01:09:41;;;;;;;20.98;5.90;;;;;;;;;;5114039;28;20072;-75
2021/08/06 01:12:09;;;;;;;17.38;5.53;;;;;;;;;;5113719;28;20498;-75
2021/08/06 01:14:36;;;;;;;19.27;5.47;;;;;;;;;;5114077;28;20370;-75
2021/08/06 01:17:03;;;;;;;16.40;4.95;;;;;;;;;;5113857;28;20082;-75
2021/08/06 01:19:31;;;;;;;20.23;5.32;;;;;;;;;;5113958;28;20464;-75
2021/08/06 01:22:00;;;;;;;10.38;4.65;;;;;;;;;;5113952;28;20088;-75
2021/08/06 01:24:27;;;;;;;13.27;5.15;;;;;;;;;;5113951;28;20024;-75
2021/08/06 01:26:54;;;;;;;17.27;5.22;;;;;;;;;;5114033;28;20019;-75
2021/08/06 01:29:19;;;;;;;28.65;6.00;;;;;;;;;;5113827;28;20023;-76
2021/08/06 01:31:44;;;;;;;18.58;5.85;;;;;;;;;;5095216;28;20047;-76
2021/08/06 01:34:10;;;;;;;16.38;6.22;;;;;;;;;;5113945;28;20455;-75
2021/08/06 01:36:35;;;;;;;17.13;6.50;;;;;;;;;;5113509;28;20036;-75
2021/08/06 01:39:01;;;;;;;20.05;6.25;;;;;;;;;;5113820;28;20019;-76
2021/08/06 01:41:37;;;;;;;21.13;5.88;;;;;;;;;;5113744;28;20016;-75
2021/08/06 01:44:21;;;;;;;24.80;6.63;;;;;;;;;;5113647;28;20031;-76
2021/08/06 01:46:47;;;;;;;22.00;6.38;;;;;;;;;;5113620;28;20019;-76
2021/08/06 01:49:21;;;;;;;25.42;6.50;;;;;;;;;;5113665;28;20498;-75
2021/08/06 01:51:50;;;;;;;15.05;6.15;;;;;;;;;;5113736;28;20036;-76
2021/08/06 01:54:16;;;;;;;17.60;5.90;;;;;;;;;;5117278;28;20474;-76
2021/08/06 01:56:42;;;;;;;24.25;6.68;;;;;;;;;;5117663;28;20069;-76
2021/08/06 01:59:08;;;;;;;19.45;5.78;;;;;;;;;;5117848;28;20016;-75
2021/08/06 02:01:33;;;;;;;21.48;6.35;;;;;;;;;;5117640;28;20035;-75
2021/08/06 02:03:59;;;;;;;20.40;6.43;;;;;;;;;;5117631;28;20046;-76
2021/08/06 02:06:24;;;;;;;22.13;5.88;;;;;;;;;;5117638;28;20416;-76
2021/08/06 02:08:51;;;;;;;17.10;5.10;;;;;;;;;;5117632;28;20032;-76
2021/08/06 02:11:18;;;;;;;19.08;5.97;;;;;;;;;;5117335;28;20403;-76
2021/08/06 02:13:43;;;;;;;18.20;5.57;;;;;;;;;;5117540;28;20020;-75
2021/08/06 02:16:09;;;;;;;20.17;5.25;;;;;;;;;;5117374;28;20039;-76
2021/08/06 02:18:35;;;;;;;16.05;5.07;;;;;;;;;;5117286;28;20019;-75
2021/08/06 02:21:04;;;;;;;16.67;4.70;;;;;;;;;;5117377;28;20019;-75
2021/08/06 02:23:31;;;;;;;13.02;4.72;;;;;;;;;;5117221;28;20042;-75
2021/08/06 02:25:56;;;;;;;12.93;4.85;;;;;;;;;;5116847;28;20463;-75
2021/08/06 02:28:22;;;;;;;18.90;5.15;;;;;;;;;;5117148;28;20033;-76
2021/08/06 02:30:48;;;;;;;17.73;5.40;;;;;;;;;;5117004;28;20123;-75
2021/08/06 02:33:14;;;;;;;12.52;4.72;;;;;;;;;;5117138;28;20051;-75
2021/08/06 02:35:39;;;;;;;20.35;5.93;;;;;;;;;;5117037;28;20040;-75
2021/08/06 02:38:05;;;;;;;19.70;5.65;;;;;;;;;;5117061;28;20439;-75
2021/08/06 02:40:30;;;;;;;17.48;4.25;;;;;;;;;;5116619;28;20016;-75
2021/08/06 02:42:55;;;;;;;15.85;5.25;;;;;;;;;;5116666;28;20027;-75
2021/08/06 02:45:20;;;;;;;14.55;4.70;;;;;;;;;;5116546;28;20036;-75
2021/08/06 02:47:46;;;;;;;11.13;3.72;;;;;;;;;;5116967;28;20024;-75
2021/08/06 02:50:12;;;;;;;14.70;4.10;;;;;;;;;;5116842;28;20092;-75
2021/08/06 02:52:37;;;;;;;8.32;2.75;;;;;;;;;;5116630;28;20112;-75
2021/08/06 02:55:03;;;;;;;9.35;2.33;;;;;;;;;;5116342;28;20028;-75
2021/08/06 02:57:28;;;;;;;7.68;2.60;;;;;;;;;;5098059;28;20030;-76
2021/08/06 02:59:53;;;;;;;9.10;3.50;;;;;;;;;;5116608;28;20031;-76
2021/08/06 03:02:19;;;;;;;9.18;3.05;;;;;;;;;;5116522;28;20371;-76
2021/08/06 03:04:44;;;;;;;12.30;3.75;;;;;;;;;;5116034;28;20061;-75
2021/08/06 03:07:09;;;;;;;11.95;3.75;;;;;;;;;;5116466;28;20031;-76
2021/08/06 03:09:34;;;;;;;12.35;3.42;;;;;;;;;;5116281;28;20386;-76
2021/08/06 03:12:00;;;;;;;10.43;3.10;;;;;;;;;;5116296;28;20073;-76
2021/08/06 03:14:25;;;;;;;9.18;3.65;;;;;;;;;;5116204;28;20526;-76
2021/08/06 03:16:51;;;;;;;10.88;3.45;;;;;;;;;;5116312;28;20034;-77
2021/08/06 03:19:16;;;;;;;10.18;3.63;;;;;;;;;;5115979;28;20064;-76
2021/08/06 03:21:41;;;;;;;13.85;3.53;;;;;;;;;;5116136;28;20388;-76
2021/08/06 03:24:07;;;;;;;16.88;3.90;;;;;;;;;;5115946;28;20028;-76
2021/08/06 03:26:32;;;;;;;14.77;3.80;;;;;;;;;;5116468;28;20363;-76
2021/08/06 03:28:57;;;;;;;26.55;5.60;;;;;;;;;;5115715;28;20031;-76
2021/08/06 03:31:22;;;;;;;25.10;5.25;;;;;;;;;;5115400;28;20035;-76
2021/08/06 03:33:48;;;;;;;12.65;4.28;;;;;;;;;;5115815;28;20031;-76
2021/08/06 03:36:13;;;;;;;18.67;4.45;;;;;;;;;;5115765;28;20038;-76
2021/08/06 03:38:39;;;;;;;13.35;4.20;;;;;;;;;;5115685;28;20100;-76
2021/08/06 03:41:04;;;;;;;11.77;4.18;;;;;;;;;;5115880;28;20102;-76
2021/08/06 03:43:29;;;;;;;15.43;4.30;;;;;;;;;;5115656;28;20163;-76
2021/08/06 03:45:55;;;;;;;14.30;3.92;;;;;;;;;;5115544;28;20019;-76
2021/08/06 03:48:20;;;;;;;16.65;4.15;;;;;;;;;;5115700;28;20024;-76
2021/08/06 03:50:45;;;;;;;14.25;4.32;;;;;;;;;;5115578;28;20466;-76
2021/08/06 03:53:10;;;;;;;13.10;4.30;;;;;;;;;;5115373;28;20478;-76
2021/08/06 03:55:36;;;;;;;15.07;3.47;;;;;;;;;;5115564;28;20061;-76
2021/08/06 03:58:02;;;;;;;13.93;3.88;;;;;;;;;;5115365;28;20459;-76
2021/08/06 04:00:30;;;;;;;14.82;4.05;;;;;;;;;;5115307;28;20020;-76
2021/08/06 04:02:56;;;;;;;29.63;4.40;;;;;;;;;;5115564;28;20040;-76
2021/08/06 04:05:21;;;;;;;25.67;4.65;;;;;;;;;;5114877;28;20031;-76
2021/08/06 04:07:47;;;;;;;33.22;5.15;;;;;;;;;;5115172;28;20132;-76
2021/08/06 04:10:13;;;;;;;11.82;4.32;;;;;;;;;;5114816;28;20364;-76
2021/08/06 04:12:38;;;;;;;18.85;4.68;;;;;;;;;;5115085;28;20050;-76
2021/08/06 04:15:04;;;;;;;16.75;4.00;;;;;;;;;;5114244;28;20098;-75
2021/08/06 04:17:30;;;;;;;18.23;4.43;;;;;;;;;;5115010;28;20051;-75
2021/08/06 04:19:55;;;;;;;15.25;4.03;;;;;;;;;;5115055;28;20059;-75
2021/08/06 04:22:20;;;;;;;15.50;4.30;;;;;;;;;;5114573;28;20049;-76
2021/08/06 04:24:46;;;;;;;16.20;3.90;;;;;;;;;;5115055;28;20512;-76
2021/08/06 04:27:11;;;;;;;14.32;4.13;;;;;;;;;;5114847;28;20038;-77
2021/08/06 04:29:36;;;;;;;32.30;4.82;;;;;;;;;;5114776;28;20023;-76
2021/08/06 04:32:01;;;;;;;11.30;4.20;;;;;;;;;;5114710;28;20047;-76
2021/08/06 04:34:27;;;;;;;17.75;4.70;;;;;;;;;;5114375;28;20023;-76
2021/08/06 04:36:53;;;;;;;17.40;4.80;;;;;;;;;;5114670;28;20024;-76
2021/08/06 04:39:19;;;;;;;31.38;5.50;;;;;;;;;;5114691;28;20024;-76
2021/08/06 04:41:44;;;;;;;38.67;5.70;;;;;;;;;;5114603;28;20024;-76
2021/08/06 04:44:09;;;;;;;15.48;4.28;;;;;;;;;;5114551;28;20019;-76
2021/08/06 04:46:35;;;;;;;22.23;5.50;;;;;;;;;;5114509;28;20386;-76
2021/08/06 04:49:00;;;;;;;100.53;8.45;;;;;;;;;;5114921;28;20038;-76
2021/08/06 04:51:25;;;;;;;29.77;6.45;;;;;;;;;;5114519;28;20076;-76
2021/08/06 04:53:50;;;;;;;29.50;7.05;;;;;;;;;;5114468;28;20047;-76
2021/08/06 04:56:16;;;;;;;25.80;6.80;;;;;;;;;;5114301;28;20031;-76
2021/08/06 04:58:41;;;;;;;38.75;9.65;;;;;;;;;;5114315;28;20059;-76
2021/08/06 05:01:07;;;;;;;30.20;8.80;;;;;;;;;;5114326;28;20024;-76
2021/08/06 05:03:33;;;;;;;32.85;8.75;;;;;;;;;;5114220;28;20035;-76
2021/08/06 05:05:58;;;;;;;26.13;8.75;;;;;;;;;;5114224;28;20364;-76
2021/08/06 05:08:23;;;;;;;32.45;9.07;;;;;;;;;;5114432;28;20090;-77
2021/08/06 05:10:48;;;;;;;30.05;8.65;;;;;;;;;;5113631;28;20042;-76
2021/08/06 05:13:14;;;;;;;28.92;9.20;;;;;;;;;;5114089;28;20065;-76
2021/08/06 05:15:39;;;;;;;21.13;8.23;;;;;;;;;;5114114;28;20051;-76
2021/08/06 05:18:04;;;;;;;21.67;8.25;;;;;;;;;;5114030;28;20035;-76
2021/08/06 05:20:30;;;;;;;28.80;7.57;;;;;;;;;;5113960;28;20437;-76
2021/08/06 05:22:55;;;;;;;31.35;9.75;;;;;;;;;;5113939;28;20048;-76
2021/08/06 05:25:20;;;;;;;20.50;7.55;;;;;;;;;;5113897;28;20039;-76
2021/08/06 05:27:46;;;;;;;18.30;5.88;;;;;;;;;;5113626;28;20095;-77
2021/08/06 05:30:12;;;;;;;21.45;5.47;;;;;;;;;;5113748;28;20027;-77
2021/08/06 05:32:37;;;;;;;22.15;3.95;;;;;;;;;;5113848;28;20110;-77
2021/08/06 05:35:02;;;;;;;25.00;4.70;;;;;;;;;;5113798;28;20407;-77
2021/08/06 05:37:28;;;;;;;20.38;4.53;;;;;;;;;;5113812;28;20269;-77
2021/08/06 05:39:53;;;;;;;17.88;4.47;;;;;;;;;;5113874;28;20077;-77
2021/08/06 05:42:19;;;;;;;14.13;3.65;;;;;;;;;;5113360;28;20023;-78
2021/08/06 05:44:45;;;;;;;18.90;4.20;;;;;;;;;;5113778;28;20039;-77
2021/08/06 05:47:10;;;;;;;13.35;3.72;;;;;;;;;;5113618;28;20463;-78
2021/08/06 05:49:35;;;;;;;13.93;3.33;;;;;;;;;;5114009;28;20020;-77
2021/08/06 05:52:00;;;;;;;15.75;4.10;;;;;;;;;;5113606;28;20036;-77
2021/08/06 05:54:26;;;;;;;10.98;3.60;;;;;;;;;;5113672;28;20471;-76
2021/08/06 05:56:51;;;;;;;16.67;3.38;;;;;;;;;;5113329;28;20456;-77
2021/08/06 05:59:16;;;;;;;12.43;2.83;;;;;;;;;;5113602;28;20016;-77
2021/08/06 06:01:42;;;;;;;15.15;2.50;;;;;;;;;;5113641;28;20085;-77
2021/08/06 06:04:07;;;;;;;13.93;2.20;;;;;;;;;;5113886;28;20118;-76
2021/08/06 06:06:33;;;;;;;10.77;2.45;;;;;;;;;;5113522;28;20019;-77
2021/08/06 06:08:59;;;;;;;6.10;1.65;;;;;;;;;;5113109;28;20522;-77
2021/08/06 06:11:24;;;;;;;6.25;1.30;;;;;;;;;;5113419;28;20115;-77
2021/08/06 06:13:49;;;;;;;7.32;1.80;;;;;;;;;;5113593;28;20019;-77
2021/08/06 06:16:15;;;;;;;7.05;1.60;;;;;;;;;;5113417;28;20066;-77
2021/08/06 06:18:40;;;;;;;10.10;1.90;;;;;;;;;;5113487;28;20034;-77
2021/08/06 06:21:06;;;;;;;7.82;1.77;;;;;;;;;;5113327;28;20045;-77
2021/08/06 06:23:32;;;;;;;7.32;2.20;;;;;;;;;;5113327;28;20142;-77
2021/08/06 06:25:57;;;;;;;7.35;1.80;;;;;;;;;;5112871;28;20094;-77
2021/08/06 06:28:22;;;;;;;11.32;2.45;;;;;;;;;;5113413;28;20020;-77
2021/08/06 06:30:48;;;;;;;4.95;2.10;;;;;;;;;;5113276;28;20340;-77
2021/08/06 06:33:13;;;;;;;4.45;1.42;;;;;;;;;;5113182;28;20067;-77
2021/08/06 06:35:38;;;;;;;6.28;1.60;;;;;;;;;;5113249;28;20102;-78
2021/08/06 06:38:04;;;;;;;5.93;1.83;;;;;;;;;;5113477;28;20535;-77
2021/08/06 06:40:29;;;;;;;3.50;1.50;;;;;;;;;;5116969;28;20027;-77
2021/08/06 06:42:55;;;;;;;5.40;2.20;;;;;;;;;;5117091;28;20416;-77
2021/08/06 06:45:20;;;;;;;4.55;1.70;;;;;;;;;;5116893;28;20028;-77
2021/08/06 06:47:47;;;;;;;5.97;2.10;;;;;;;;;;5116877;28;20023;-77
2021/08/06 06:50:14;;;;;;;10.25;2.10;;;;;;;;;;5116744;28;20031;-79
2021/08/06 06:52:39;;;;;;;6.35;2.45;;;;;;;;;;5116778;28;20141;-77
2021/08/06 06:55:05;;;;;;;8.48;2.92;;;;;;;;;;5116625;28;20528;-77
2021/08/06 06:57:31;;;;;;;6.93;3.00;;;;;;;;;;5116430;28;20378;-77
2021/08/06 06:59:56;;;;;;;4.82;2.53;;;;;;;;;;5116021;28;20040;-77
2021/08/06 07:02:22;;;;;;;6.25;2.25;;;;;;;;;;5116545;28;20045;-77
2021/08/06 07:04:47;;;;;;;5.10;2.00;;;;;;;;;;5116570;28;20016;-78
2021/08/06 07:07:13;;;;;;;4.88;2.45;;;;;;;;;;5116390;28;20031;-78
2021/08/06 07:09:38;;;;;;;6.45;2.30;;;;;;;;;;5116080;28;20035;-78
2021/08/06 07:12:03;;;;;;;5.07;1.90;;;;;;;;;;5116182;28;20031;-78
2021/08/06 07:14:29;;;;;;;6.22;1.77;;;;;;;;;;5116361;28;20463;-78
2021/08/06 07:16:54;;;;;;;6.97;2.22;;;;;;;;;;5116226;28;20497;-78
2021/08/06 07:19:19;;;;;;;5.63;2.47;;;;;;;;;;5097837;28;20452;-78
2021/08/06 07:21:48;;;;;;;6.75;2.78;;;;;;;;;;5116091;28;20031;-78
2021/08/06 07:24:13;;;;;;;5.45;2.53;;;;;;;;;;5116074;28;20051;-79
2021/08/06 07:26:39;;;;;;;11.77;2.05;;;;;;;;;;5115852;28;20023;-78
2021/08/06 07:29:04;;;;;;;6.35;2.17;;;;;;;;;;5115975;28;20032;-78
2021/08/06 07:31:29;;;;;;;10.27;2.20;;;;;;;;;;5115559;28;20481;-78
2021/08/06 07:33:55;;;;;;;7.05;2.42;;;;;;;;;;5115826;28;20026;-78
2021/08/06 07:36:20;;;;;;;13.25;2.83;;;;;;;;;;5115623;28;20031;-78
2021/08/06 07:38:45;;;;;;;6.75;2.30;;;;;;;;;;5115828;28;20023;-77
2021/08/06 07:41:10;;;;;;;14.30;2.65;;;;;;;;;;5115122;28;20065;-77
2021/08/06 07:43:36;;;;;;;7.32;2.20;;;;;;;;;;5115751;28;20115;-78
2021/08/06 07:46:01;;;;;;;5.03;1.95;;;;;;;;;;5115597;28;20383;-78
2021/08/06 07:48:26;;;;;;;7.43;2.47;;;;;;;;;;5115682;28;20015;-78
2021/08/06 07:50:52;;;;;;;6.82;2.13;;;;;;;;;;5115522;28;20481;-78
2021/08/06 07:53:17;;;;;;;7.53;1.90;;;;;;;;;;5097210;28;20024;-78
2021/08/06 07:55:42;;;;;;;6.20;1.92;;;;;;;;;;5108600;28;20519;-77
2021/08/06 07:58:07;;;;;;;4.10;1.60;;;;;;;;;;5114737;28;20035;-77
2021/08/06 08:00:33;;;;;;;4.68;1.25;;;;;;;;;;5114655;28;20065;-78
2021/08/06 08:02:58;;;;;;;10.15;1.75;;;;;;;;;;5115761;28;20402;-78
2021/08/06 08:05:24;;;;;;;5.63;1.63;;;;;;;;;;5115223;28;20463;-79
2021/08/06 08:07:49;;;;;;;3.47;1.10;;;;;;;;;;5115132;28;20028;-78
2021/08/06 08:10:14;;;;;;;6.57;1.15;;;;;;;;;;5115181;28;20024;-78
2021/08/06 08:12:40;;;;;;;3.90;1.20;;;;;;;;;;5115093;28;20050;-78
2021/08/06 08:15:06;;;;;;;7.63;1.58;;;;;;;;;;5096804;28;20039;-78
2021/08/06 08:17:31;;;;;;;4.10;1.63;;;;;;;;;;5108279;28;20797;-79
2021/08/06 08:19:56;;;;;;;7.50;1.90;;;;;;;;;;5109896;28;20035;-79
2021/08/06 08:22:22;;;;;;;3.92;1.20;;;;;;;;;;5110337;28;20028;-79
2021/08/06 08:24:47;;;;;;;6.43;1.40;;;;;;;;;;5111122;28;20110;-78
2021/08/06 08:27:13;;;;;;;5.53;1.45;;;;;;;;;;5110774;28;20040;-78
2021/08/06 08:29:38;;;;;;;7.32;1.35;;;;;;;;;;5111053;28;20026;-79
2021/08/06 08:32:03;;;;;;;4.43;1.23;;;;;;;;;;5110590;28;20091;-78
2021/08/06 08:34:29;;;;;;;6.90;1.77;;;;;;;;;;5110749;28;20031;-79
2021/08/06 08:36:54;;;;;;;5.93;1.73;;;;;;;;;;5111793;28;20019;-78
2021/08/06 08:39:19;;;;;;;6.70;1.67;;;;;;;;;;5110819;28;20383;-79
2021/08/06 08:41:45;;;;;;;5.22;1.60;;;;;;;;;;5110964;28;20036;-78
2021/08/06 08:44:10;;;;;;;5.50;1.70;;;;;;;;;;5110815;28;20107;-78
2021/08/06 08:46:36;;;;;;;8.38;1.85;;;;;;;;;;5092913;28;20031;-78
2021/08/06 08:49:02;;;;;;;3.60;1.40;;;;;;;;;;5110992;28;20046;-80
2021/08/06 08:51:28;;;;;;;8.52;2.38;;;;;;;;;;5111276;28;20036;-78
2021/08/06 08:53:54;;;;;;;4.82;1.85;;;;;;;;;;5110687;28;20024;-78
2021/08/06 08:56:19;;;;;;;5.32;1.95;;;;;;;;;;5110685;28;20047;-78
2021/08/06 08:58:44;;;;;;;7.35;1.73;;;;;;;;;;5110226;28;20024;-78
2021/08/06 09:01:10;;;;;;;5.43;2.00;;;;;;;;;;5109335;28;20039;-79
2021/08/06 09:03:37;;;;;;;7.47;1.65;;;;;;;;;;5107036;28;20035;-78
2021/08/06 09:06:03;;;;;;;12.93;3.10;;;;;;;;;;5091527;28;20073;-78
2021/08/06 09:08:28;;;;;;;9.45;2.30;;;;;;;;;;5110040;28;20435;-78
2021/08/06 09:10:53;;;;;;;12.32;3.53;;;;;;;;;;5109407;28;20039;-78
2021/08/06 09:13:25;;;;;;;11.88;2.67;;;;;;;;;;5109742;28;20023;-79
2021/08/06 09:15:55;;;;;;;9.43;2.80;;;;;;;;;;5110629;28;20011;-78
2021/08/06 09:18:23;;;;;;;16.45;3.20;;;;;;;;;;5109714;28;20076;-79
2021/08/06 09:20:48;;;;;;;11.57;2.28;;;;;;;;;;5110516;28;20405;-78
2021/08/06 09:23:33;;;;;;;7.78;2.80;;;;;;;;;;5110231;28;20020;-79
2021/08/06 09:25:58;;;;;;;9.50;2.50;;;;;;;;;;5110000;28;20546;-78
2021/08/06 09:28:24;;;;;;;9.23;2.58;;;;;;;;;;5110229;28;20099;-79
2021/08/06 09:30:50;;;;;;;9.13;2.53;;;;;;;;;;5111325;28;20030;-78
2021/08/06 09:33:15;;;;;;;5.93;2.35;;;;;;;;;;5109717;28;20114;-78
2021/08/06 09:35:41;;;;;;;7.75;1.95;;;;;;;;;;5109814;28;20080;-78
2021/08/06 09:38:16;;;;;;;11.15;2.08;;;;;;;;;;5110155;28;20042;-79
2021/08/06 09:40:42;;;;;;;7.80;1.95;;;;;;;;;;5109781;28;20066;-78
2021/08/06 09:43:14;;;;;;;7.65;1.98;;;;;;;;;;5109035;28;20059;-79
2021/08/06 09:45:40;;;;;;;11.13;2.30;;;;;;;;;;5109333;28;20019;-79
2021/08/06 09:48:08;;;;;;;10.55;2.47;;;;;;;;;;5109453;28;20035;-78
2021/08/06 09:50:43;;;;;;;6.65;2.33;;;;;;;;;;5109722;28;20035;-79
2021/08/06 09:53:09;;;;;;;8.85;2.63;;;;;;;;;;5108859;28;20037;-79
2021/08/06 09:55:35;;;;;;;10.07;2.63;;;;;;;;;;5109870;28;20035;-82
2021/08/06 09:58:02;;;;;;;7.50;2.25;;;;;;;;;;5109706;28;20023;-79
2021/08/06 10:00:28;;;;;;;9.65;2.60;;;;;;;;;;5109531;28;20072;-78
2021/08/06 10:02:54;;;;;;;10.60;2.70;;;;;;;;;;5109233;28;20118;-79
2021/08/06 10:05:20;;;;;;;12.93;2.80;;;;;;;;;;5108861;28;20459;-79
2021/08/06 10:07:47;;;;;;;9.65;2.55;;;;;;;;;;5109121;28;20551;-78
2021/08/06 10:10:14;;;;;;;14.48;3.20;;;;;;;;;;5109035;28;20035;-80
2021/08/06 10:12:39;;;;;;;14.70;2.90;;;;;;;;;;5108765;28;20051;-78
2021/08/06 10:15:06;;;;;;;12.88;3.78;;;;;;;;;;5112769;28;20031;-78
2021/08/06 10:17:31;;;;;;;11.30;2.80;;;;;;;;;;5113216;28;20500;-82
2021/08/06 10:19:56;;;;;;;16.83;3.03;;;;;;;;;;5113513;28;20023;-79
2021/08/06 10:22:22;;;;;;;11.77;3.38;;;;;;;;;;5113077;28;20407;-79
2021/08/06 10:24:49;;;;;;;12.35;3.38;;;;;;;;;;5113828;28;20027;-82
2021/08/06 10:27:17;;;;;;;11.20;3.00;;;;;;;;;;5113383;28;20398;-79
2021/08/06 10:30:02;;;;;;;12.82;3.28;;;;;;;;;;5113082;28;20024;-78
2021/08/06 10:32:28;;;;;;;14.05;3.83;;;;;;;;;;5112049;28;20076;-79
2021/08/06 10:35:06;;;;;;;10.90;3.20;;;;;;;;;;5113281;28;20078;-80
2021/08/06 10:37:50;;;;;;;17.42;3.28;;;;;;;;;;5112998;28;20035;-78
2021/08/06 10:40:34;;;;;;;11.63;2.72;;;;;;;;;;5112504;28;20031;-79
2021/08/06 10:43:00;;;;;;;16.63;3.83;;;;;;;;;;5112388;28;20486;-79
2021/08/06 10:45:44;;;;;;;9.50;2.88;;;;;;;;;;5113539;28;20438;-78
2021/08/06 10:48:29;;;;;;;11.00;2.83;;;;;;;;;;5107233;28;20360;-78
2021/08/06 10:51:13;;;;;;;10.75;2.88;;;;;;;;;;5111515;28;20367;-79
2021/08/06 10:53:39;;;;;;;14.23;3.40;;;;;;;;;;5111855;28;20519;-78
2021/08/06 10:56:17;;;;;;;13.25;3.45;;;;;;;;;;5094539;28;20466;-79
2021/08/06 10:58:49;;;;;;;11.60;2.97;;;;;;;;;;5111588;28;20091;-81
2021/08/06 11:01:33;;;;;;;10.40;2.88;;;;;;;;;;5112367;28;20114;-78
2021/08/06 11:03:58;;;;;;;14.52;3.50;;;;;;;;;;5111376;28;20036;-78
2021/08/06 11:06:30;;;;;;;18.50;3.45;;;;;;;;;;5111892;28;20026;-79
2021/08/06 11:08:56;;;;;;;16.60;2.75;;;;;;;;;;5093720;28;20392;-79
2021/08/06 11:11:40;;;;;;;14.05;3.70;;;;;;;;;;5111941;28;20056;-79
2021/08/06 11:14:05;;;;;;;13.65;2.95;;;;;;;;;;5111627;28;20031;-77
2021/08/06 11:16:31;;;;;;;10.52;2.40;;;;;;;;;;5110773;28;20425;-78
2021/08/06 11:18:56;;;;;;;9.32;2.53;;;;;;;;;;5111907;28;20516;-79
2021/08/06 11:21:22;;;;;;;13.20;2.78;;;;;;;;;;5111921;28;20035;-78
2021/08/06 11:23:54;;;;;;;14.10;2.47;;;;;;;;;;5111420;28;20031;-80
2021/08/06 11:26:19;;;;;;;17.67;3.30;;;;;;;;;;5112057;28;20107;-79
2021/08/06 11:28:45;;;;;;;12.27;2.97;;;;;;;;;;5111628;28;20114;-77
2021/08/06 11:31:14;;;;;;;8.50;2.03;;;;;;;;;;5111624;28;20040;-79
2021/08/06 11:33:39;;;;;;;9.30;2.20;;;;;;;;;;5111061;28;20063;-78
2021/08/06 11:36:13;;;;;;;11.05;2.72;;;;;;;;;;5112337;28;20066;-78
2021/08/06 11:38:38;;;;;;;16.05;3.17;;;;;;;;;;5111549;28;20035;-78
2021/08/06 11:41:03;;;;;;;13.77;2.92;;;;;;;;;;5111890;28;20033;-78
2021/08/06 11:43:33;;;;;;;14.02;4.28;;;;;;;;;;5110770;28;20064;-77
2021/08/06 11:46:07;;;;;;;11.27;2.65;;;;;;;;;;5112295;28;20114;-78
2021/08/06 11:48:45;;;;;;;12.13;2.55;;;;;;;;;;5112173;28;20058;-78
2021/08/06 11:51:10;;;;;;;14.52;3.10;;;;;;;;;;5112091;28;20053;-77
2021/08/06 11:53:36;;;;;;;11.70;2.42;;;;;;;;;;5111262;28;20032;-78
2021/08/06 11:56:10;;;;;;;13.52;2.10;;;;;;;;;;5112720;28;20080;-77
2021/08/06 11:58:36;;;;;;;16.83;3.58;;;;;;;;;;5111396;28;20024;-80
2021/08/06 12:01:02;;;;;;;8.15;2.00;;;;;;;;;;5112074;28;20051;-78
2021/08/06 12:03:28;;;;;;;16.85;3.60;;;;;;;;;;5111313;28;20031;-77
2021/08/06 12:05:59;;;;;;;12.50;2.30;;;;;;;;;;5110681;28;20463;-77
2021/08/06 12:08:25;;;;;;;10.23;2.70;;;;;;;;;;5092247;28;20375;-77
2021/08/06 12:10:52;;;;;;;11.88;2.30;;;;;;;;;;5092122;28;20043;-77
2021/08/06 12:13:21;;;;;;;6.90;2.40;;;;;;;;;;5110722;28;20082;-79
2021/08/06 12:15:46;;;;;;;15.20;3.15;;;;;;;;;;5111176;28;20039;-78
2021/08/06 12:18:14;;;;;;;13.68;2.60;;;;;;;;;;5111819;28;20031;-78
2021/08/06 12:20:41;;;;;;;16.90;2.88;;;;;;;;;;5111032;28;20112;-77
2021/08/06 12:23:07;;;;;;;10.18;2.70;;;;;;;;;;5110673;28;20031;-76
2021/08/06 12:25:33;;;;;;;12.95;2.60;;;;;;;;;;5110390;28;20379;-78
2021/08/06 12:28:01;;;;;;;9.40;2.78;;;;;;;;;;5110695;28;20034;-77
2021/08/06 12:30:27;;;;;;;11.90;2.50;;;;;;;;;;5110860;28;20031;-77
2021/08/06 12:32:53;;;;;;;10.98;2.90;;;;;;;;;;5110644;28;20395;-80
2021/08/06 12:35:19;;;;;;;13.85;2.28;;;;;;;;;;5110387;28;20017;-77
2021/08/06 12:37:44;;;;;;;10.98;2.70;;;;;;;;;;5109539;28;21037;-76
2021/08/06 12:40:10;;;;;;;14.60;2.38;;;;;;;;;;5109934;28;20059;-76
2021/08/06 12:42:36;;;;;;;12.50;2.22;;;;;;;;;;5110142;28;20023;-75
2021/08/06 12:45:04;;;;;;;14.00;2.47;;;;;;;;;;5110262;28;20118;-76
2021/08/06 12:47:41;;;;;;;9.65;1.83;;;;;;;;;;5110936;28;20421;-79
2021/08/06 12:50:07;;;;;;;5.72;1.60;;;;;;;;;;5110484;28;20372;-76
2021/08/06 12:52:37;;;;;;;8.32;1.73;;;;;;;;;;5110623;28;20035;-76
2021/08/06 12:55:05;;;;;;;8.05;2.17;;;;;;;;;;5110157;28;20057;-78
2021/08/06 12:57:37;;;;;;;9.55;2.50;;;;;;;;;;5111108;28;20034;-76
2021/08/06 13:00:17;;;;;;;8.85;1.58;;;;;;;;;;5110599;28;20028;-75
2021/08/06 13:02:43;;;;;;;12.30;2.22;;;;;;;;;;5110050;28;20040;-76
2021/08/06 13:05:09;;;;;;;7.60;1.77;;;;;;;;;;5109870;28;20088;-79
2021/08/06 13:07:35;;;;;;;10.52;2.17;;;;;;;;;;5110867;28;20382;-77
2021/08/06 13:10:01;;;;;;;10.60;1.77;;;;;;;;;;5109712;28;20023;-76
2021/08/06 13:12:26;;;;;;;5.22;1.40;;;;;;;;;;5109948;28;20093;-76
2021/08/06 13:14:52;;;;;;;9.00;1.42;;;;;;;;;;5109194;28;20028;-78
2021/08/06 13:17:18;;;;;;;11.43;2.22;;;;;;;;;;5110294;28;20421;-76
2021/08/06 13:19:44;;;;;;;6.43;1.75;;;;;;;;;;5110414;28;20550;-76
2021/08/06 13:22:12;;;;;;;14.07;1.73;;;;;;;;;;5109644;28;20053;-76
2021/08/06 13:24:38;;;;;;;4.68;1.15;;;;;;;;;;5110089;28;20135;-77
2021/08/06 13:27:03;;;;;;;5.97;1.42;;;;;;;;;;5109606;28;20123;-75
2021/08/06 13:29:29;;;;;;;5.50;1.40;;;;;;;;;;5110052;28;20037;-76
2021/08/06 13:31:56;;;;;;;9.55;2.15;;;;;;;;;;5109494;28;20063;-75
2021/08/06 13:34:22;;;;;;;9.85;1.58;;;;;;;;;;5109585;28;20046;-76
2021/08/06 13:36:47;;;;;;;7.75;1.58;;;;;;;;;;5109424;28;20016;-76
2021/08/06 13:39:12;;;;;;;9.50;1.70;;;;;;;;;;5109664;28;20455;-75
2021/08/06 13:41:38;;;;;;;8.05;1.30;;;;;;;;;;5109432;28;20121;-76
2021/08/06 13:44:03;;;;;;;14.20;2.42;;;;;;;;;;5109264;28;20064;-75
2021/08/06 13:46:29;;;;;;;5.38;1.25;;;;;;;;;;5110051;28;20035;-78
2021/08/06 13:48:54;;;;;;;8.65;1.77;;;;;;;;;;5112754;28;20475;-76
2021/08/06 13:51:19;;;;;;;3.75;1.15;;;;;;;;;;5113612;28;20035;-76
2021/08/06 13:53:45;;;;;;;7.75;1.15;;;;;;;;;;5116071;28;20057;-76
2021/08/06 13:56:10;;;;;;;8.60;1.65;;;;;;;;;;5117190;28;20118;-75
2021/08/06 13:58:35;;;;;;;5.43;1.13;;;;;;;;;;5117696;28;20104;-75
2021/08/06 14:01:01;;;;;;;5.95;1.20;;;;;;;;;;5117484;28;20080;-76
2021/08/06 14:03:27;;;;;;;9.35;1.52;;;;;;;;;;5117743;28;20040;-76
2021/08/06 14:05:52;;;;;;;7.80;1.30;;;;;;;;;;5117329;28;20371;-75
2021/08/06 14:08:18;;;;;;;6.47;1.05;;;;;;;;;;5117638;28;20035;-75
2021/08/06 14:10:43;;;;;;;5.47;0.90;;;;;;;;;;5117528;28;20107;-75
2021/08/06 14:13:08;;;;;;;8.45;1.50;;;;;;;;;;5117428;28;20032;-75
2021/08/06 14:15:34;;;;;;;10.07;1.52;;;;;;;;;;5116650;28;20447;-76
2021/08/06 14:17:59;;;;;;;7.30;1.70;;;;;;;;;;5116965;28;20040;-75
2021/08/06 14:20:25;;;;;;;12.63;2.20;;;;;;;;;;5117572;28;20019;-75
2021/08/06 14:22:50;;;;;;;6.00;1.10;;;;;;;;;;5117294;28;20073;-76
2021/08/06 14:25:15;;;;;;;8.65;2.15;;;;;;;;;;5117351;28;20390;-75
2021/08/06 14:27:40;;;;;;;8.20;1.88;;;;;;;;;;5098824;28;20042;-75
2021/08/06 14:30:06;;;;;;;6.63;1.63;;;;;;;;;;5117241;28;20455;-74